createdAt,value
2023-03-13T00:24:56.799Z,10.30
2023-03-13T00:55:23.755Z,8.20
2023-03-13T01:25:42.274Z,7.73
2023-03-13T02:31:25.720Z,9.67
2023-03-13T03:02:07.719Z,9.40
2023-03-13T03:32:35.876Z,8.97
2023-03-13T03:57:49.371Z,8.90
2023-03-13T04:18:06.110Z,9.97
2023-03-13T04:48:30.656Z,10.10
2023-03-13T05:27:53.826Z,12.57
2023-03-13T07:40:36.225Z,13.20
2023-03-13T08:06:06.952Z,13.20
2023-03-13T08:35:56.720Z,12.17
2023-03-13T08:56:48.526Z,11.57
2023-03-13T09:16:48.506Z,10.20
2023-03-13T09:37:27.961Z,8.50
2023-03-13T10:07:48.682Z,6.27
2023-03-13T10:47:58.254Z,6.33
2023-03-13T11:13:41.184Z,5.33
2023-03-13T11:59:33.232Z,6.00
2023-03-13T12:19:47.956Z,5.37
2023-03-13T12:59:46.292Z,5.07
2023-03-13T13:25:41.681Z,5.83
2023-03-13T13:55:58.585Z,5.80
2023-03-13T14:21:14.302Z,6.13
2023-03-13T14:46:45.968Z,6.40
2023-03-13T15:22:25.481Z,5.27
2023-03-13T16:02:19.722Z,4.97
2023-03-13T16:28:07.597Z,5.53
2023-03-13T16:58:49.641Z,5.47
2023-03-13T17:28:49.633Z,5.40
2023-03-13T17:49:21.520Z,6.10
2023-03-13T18:39:55.927Z,4.97
2023-03-13T18:59:51.795Z,5.20
2023-03-13T19:30:55.379Z,5.27
2023-03-13T20:01:16.740Z,5.83
2023-03-13T20:46:21.987Z,6.27
2023-03-13T21:12:27.081Z,6.13
2023-03-13T21:47:51.806Z,6.03
2023-03-13T22:18:04.185Z,7.00
2023-03-13T22:58:52.888Z,6.47
2023-03-13T23:29:16.578Z,6.73
2023-03-13T23:49:35.521Z,6.50
